ENBR/BGO METAR and TAF weather

Enter ICAO airport designator
Station Type Date Time Source
ENBR METAR 2021/02/27 20:50 UTC NOAA

ENBR 272050Z 21004KT 4500 BR SCT003 BKN005 06/06 Q1036 RMK WIND 1200FT 25010KT


Station Type Date Time Source
ENBR Decoded METAR 2021/02/27 20:50 UTC NOAA

Bergen / Flesland, Norway (ENBR) 60-17N 005-14E 50M
Feb 27, 2021 - 03:50 PM EST / 2021.02.27 2050 UTC
Wind: from the SSW (210 degrees) at 5 MPH (4 KT):0
Visibility: 2 mile(s):0
Sky conditions: mostly cloudy
Weather: mist
Temperature: 42 F (6 C)
Dew Point: 42 F (6 C)
Relative Humidity: 100%
Pressure (altimeter): 30.59 in. Hg (1036 hPa)
ob: ENBR 272050Z 21004KT 4500 BR SCT003 BKN005 06/06 Q1036 RMK WIND 1200FT 25010KT
cycle: 21

Station Type Date Time Source
ENBR TAF 2021/02/27 18:57 UTC NOAA

TAF ENBR 271700Z 2718/2818 16008KT 5000 -DZ SCT003 OVC010 PROB40 2719/2809 0800 FG VV002
BECMG 2809/2811 SCT012 BKN020
TEMPO 2811/2818 BKN012

Example: see airport list